sensor_id;sensor_type;location;lat;lon;timestamp;P1;durP1;ratioP1;P2;durP2;ratioP2
85040;SDS011;75367;52.010;4.358;2024-02-15T00:00:15;7.40;;;1.92;;
85040;SDS011;75367;52.010;4.358;2024-02-15T00:02:42;5.53;;;1.77;;
85040;SDS011;75367;52.010;4.358;2024-02-15T00:05:10;7.65;;;1.77;;
85040;SDS011;75367;52.010;4.358;2024-02-15T00:07:36;9.60;;;2.20;;
85040;SDS011;75367;52.010;4.358;2024-02-15T00:10:02;6.20;;;1.60;;
85040;SDS011;75367;52.010;4.358;2024-02-15T00:12:29;4.78;;;1.58;;
85040;SDS011;75367;52.010;4.358;2024-02-15T00:14:54;7.72;;;2.45;;
85040;SDS011;75367;52.010;4.358;2024-02-15T00:17:23;7.22;;;2.22;;
85040;SDS011;75367;52.010;4.358;2024-02-15T00:19:49;6.03;;;2.17;;
85040;SDS011;75367;52.010;4.358;2024-02-15T00:22:14;6.35;;;2.33;;
85040;SDS011;75367;52.010;4.358;2024-02-15T00:24:40;6.63;;;1.85;;
85040;SDS011;75367;52.010;4.358;2024-02-15T00:27:06;6.45;;;2.22;;
85040;SDS011;75367;52.010;4.358;2024-02-15T00:29:32;8.88;;;3.10;;
85040;SDS011;75367;52.010;4.358;2024-02-15T00:31:59;7.22;;;2.65;;
85040;SDS011;75367;52.010;4.358;2024-02-15T00:34:24;8.68;;;2.85;;
85040;SDS011;75367;52.010;4.358;2024-02-15T00:36:51;5.90;;;2.42;;
85040;SDS011;75367;52.010;4.358;2024-02-15T00:39:17;5.97;;;2.63;;
85040;SDS011;75367;52.010;4.358;2024-02-15T00:41:43;5.85;;;2.95;;
85040;SDS011;75367;52.010;4.358;2024-02-15T00:44:10;4.90;;;2.85;;
85040;SDS011;75367;52.010;4.358;2024-02-15T00:46:36;7.18;;;3.25;;
85040;SDS011;75367;52.010;4.358;2024-02-15T00:49:02;6.47;;;2.90;;
85040;SDS011;75367;52.010;4.358;2024-02-15T00:51:28;6.05;;;2.28;;
85040;SDS011;75367;52.010;4.358;2024-02-15T00:53:54;6.75;;;2.80;;
85040;SDS011;75367;52.010;4.358;2024-02-15T00:56:19;8.88;;;3.45;;
85040;SDS011;75367;52.010;4.358;2024-02-15T00:58:44;8.02;;;3.47;;
85040;SDS011;75367;52.010;4.358;2024-02-15T01:01:10;5.72;;;3.47;;
85040;SDS011;75367;52.010;4.358;2024-02-15T01:03:36;8.57;;;3.38;;
85040;SDS011;75367;52.010;4.358;2024-02-15T01:06:01;8.13;;;2.78;;
85040;SDS011;75367;52.010;4.358;2024-02-15T01:08:27;5.00;;;2.70;;
85040;SDS011;75367;52.010;4.358;2024-02-15T01:10:53;7.38;;;3.50;;
85040;SDS011;75367;52.010;4.358;2024-02-15T01:13:18;4.90;;;3.38;;
85040;SDS011;75367;52.010;4.358;2024-02-15T01:15:44;6.20;;;3.17;;
85040;SDS011;75367;52.010;4.358;2024-02-15T01:18:11;6.97;;;3.70;;
85040;SDS011;75367;52.010;4.358;2024-02-15T01:20:36;7.65;;;3.45;;
85040;SDS011;75367;52.010;4.358;2024-02-15T01:23:02;8.63;;;3.50;;
85040;SDS011;75367;52.010;4.358;2024-02-15T01:25:28;7.82;;;3.53;;
85040;SDS011;75367;52.010;4.358;2024-02-15T01:27:53;9.55;;;3.10;;
85040;SDS011;75367;52.010;4.358;2024-02-15T01:30:19;5.45;;;2.58;;
85040;SDS011;75367;52.010;4.358;2024-02-15T01:32:44;6.20;;;2.33;;
85040;SDS011;75367;52.010;4.358;2024-02-15T01:35:09;7.50;;;3.13;;
85040;SDS011;75367;52.010;4.358;2024-02-15T01:37:36;8.13;;;3.40;;
85040;SDS011;75367;52.010;4.358;2024-02-15T01:40:02;10.02;;;2.97;;
85040;SDS011;75367;52.010;4.358;2024-02-15T01:42:28;6.97;;;2.30;;
85040;SDS011;75367;52.010;4.358;2024-02-15T01:44:53;8.65;;;2.85;;
85040;SDS011;75367;52.010;4.358;2024-02-15T01:47:19;4.60;;;2.75;;
85040;SDS011;75367;52.010;4.358;2024-02-15T01:49:45;6.82;;;2.78;;
85040;SDS011;75367;52.010;4.358;2024-02-15T01:52:10;8.10;;;2.97;;
85040;SDS011;75367;52.010;4.358;2024-02-15T01:54:37;5.65;;;2.75;;
85040;SDS011;75367;52.010;4.358;2024-02-15T01:57:03;8.85;;;3.72;;
85040;SDS011;75367;52.010;4.358;2024-02-15T01:59:29;7.13;;;2.78;;
85040;SDS011;75367;52.010;4.358;2024-02-15T02:01:55;8.60;;;3.00;;
85040;SDS011;75367;52.010;4.358;2024-02-15T02:04:21;7.57;;;2.80;;
85040;SDS011;75367;52.010;4.358;2024-02-15T02:06:46;7.00;;;2.47;;
85040;SDS011;75367;52.010;4.358;2024-02-15T02:09:12;6.85;;;2.47;;
85040;SDS011;75367;52.010;4.358;2024-02-15T02:11:44;9.40;;;3.22;;
85040;SDS011;75367;52.010;4.358;2024-02-15T02:16:36;9.67;;;2.90;;
85040;SDS011;75367;52.010;4.358;2024-02-15T02:19:04;8.20;;;3.00;;
85040;SDS011;75367;52.010;4.358;2024-02-15T02:21:34;8.18;;;3.03;;
85040;SDS011;75367;52.010;4.358;2024-02-15T02:24:00;8.65;;;2.70;;
85040;SDS011;75367;52.010;4.358;2024-02-15T02:26:28;6.63;;;2.75;;
85040;SDS011;75367;52.010;4.358;2024-02-15T02:28:56;7.10;;;2.33;;
85040;SDS011;75367;52.010;4.358;2024-02-15T02:31:21;9.27;;;2.42;;
85040;SDS011;75367;52.010;4.358;2024-02-15T02:33:48;7.47;;;4.00;;
85040;SDS011;75367;52.010;4.358;2024-02-15T02:36:17;6.60;;;2.78;;
85040;SDS011;75367;52.010;4.358;2024-02-15T02:38:43;8.82;;;2.10;;
85040;SDS011;75367;52.010;4.358;2024-02-15T02:41:10;6.10;;;2.40;;
85040;SDS011;75367;52.010;4.358;2024-02-15T02:43:41;10.20;;;3.17;;
85040;SDS011;75367;52.010;4.358;2024-02-15T02:46:09;8.93;;;2.60;;
85040;SDS011;75367;52.010;4.358;2024-02-15T02:48:36;4.47;;;1.45;;
85040;SDS011;75367;52.010;4.358;2024-02-15T02:51:01;6.88;;;2.90;;
85040;SDS011;75367;52.010;4.358;2024-02-15T02:53:27;7.38;;;2.60;;
85040;SDS011;75367;52.010;4.358;2024-02-15T02:55:53;5.82;;;2.13;;
85040;SDS011;75367;52.010;4.358;2024-02-15T02:58:21;7.97;;;3.17;;
85040;SDS011;75367;52.010;4.358;2024-02-15T03:00:46;7.75;;;2.42;;
85040;SDS011;75367;52.010;4.358;2024-02-15T03:03:12;6.10;;;2.83;;
85040;SDS011;75367;52.010;4.358;2024-02-15T03:05:37;6.18;;;2.45;;
85040;SDS011;75367;52.010;4.358;2024-02-15T03:08:05;5.97;;;2.33;;
85040;SDS011;75367;52.010;4.358;2024-02-15T03:10:31;10.15;;;3.25;;
85040;SDS011;75367;52.010;4.358;2024-02-15T03:12:56;7.47;;;3.25;;
85040;SDS011;75367;52.010;4.358;2024-02-15T03:15:22;10.65;;;3.60;;
85040;SDS011;75367;52.010;4.358;2024-02-15T03:17:47;5.35;;;2.92;;
85040;SDS011;75367;52.010;4.358;2024-02-15T03:20:15;6.80;;;3.08;;
85040;SDS011;75367;52.010;4.358;2024-02-15T03:22:58;7.32;;;2.50;;
85040;SDS011;75367;52.010;4.358;2024-02-15T03:25:24;5.60;;;3.53;;
85040;SDS011;75367;52.010;4.358;2024-02-15T03:27:53;4.20;;;2.53;;
85040;SDS011;75367;52.010;4.358;2024-02-15T03:30:20;6.97;;;2.85;;
85040;SDS011;75367;52.010;4.358;2024-02-15T03:32:56;6.32;;;3.25;;
85040;SDS011;75367;52.010;4.358;2024-02-15T03:35:24;7.38;;;2.50;;
85040;SDS011;75367;52.010;4.358;2024-02-15T03:37:51;9.02;;;3.60;;
85040;SDS011;75367;52.010;4.358;2024-02-15T03:40:17;6.00;;;3.15;;
85040;SDS011;75367;52.010;4.358;2024-02-15T03:42:44;8.88;;;3.90;;
85040;SDS011;75367;52.010;4.358;2024-02-15T03:45:09;9.95;;;4.90;;
85040;SDS011;75367;52.010;4.358;2024-02-15T03:47:36;7.85;;;4.60;;
85040;SDS011;75367;52.010;4.358;2024-02-15T03:50:04;6.47;;;5.32;;
85040;SDS011;75367;52.010;4.358;2024-02-15T03:52:31;7.32;;;5.30;;
85040;SDS011;75367;52.010;4.358;2024-02-15T03:54:57;8.95;;;5.72;;
85040;SDS011;75367;52.010;4.358;2024-02-15T03:57:23;7.93;;;4.57;;
85040;SDS011;75367;52.010;4.358;2024-02-15T03:59:49;7.30;;;4.85;;
85040;SDS011;75367;52.010;4.358;2024-02-15T04:02:17;5.88;;;4.15;;
85040;SDS011;75367;52.010;4.358;2024-02-15T04:04:46;6.40;;;4.07;;
85040;SDS011;75367;52.010;4.358;2024-02-15T04:07:14;6.03;;;3.20;;
85040;SDS011;75367;52.010;4.358;2024-02-15T04:09:41;5.40;;;4.35;;
85040;SDS011;75367;52.010;4.358;2024-02-15T04:12:07;5.10;;;3.67;;
85040;SDS011;75367;52.010;4.358;2024-02-15T04:14:33;6.00;;;3.78;;
85040;SDS011;75367;52.010;4.358;2024-02-15T04:17:04;6.80;;;3.60;;
85040;SDS011;75367;52.010;4.358;2024-02-15T04:19:30;6.43;;;3.95;;
85040;SDS011;75367;52.010;4.358;2024-02-15T04:21:56;4.18;;;2.55;;
85040;SDS011;75367;52.010;4.358;2024-02-15T04:24:22;4.90;;;3.47;;
85040;SDS011;75367;52.010;4.358;2024-02-15T04:26:48;6.30;;;2.90;;
85040;SDS011;75367;52.010;4.358;2024-02-15T04:29:13;8.50;;;3.65;;
85040;SDS011;75367;52.010;4.358;2024-02-15T04:31:45;5.00;;;3.50;;
85040;SDS011;75367;52.010;4.358;2024-02-15T04:34:14;6.50;;;3.17;;
85040;SDS011;75367;52.010;4.358;2024-02-15T04:36:40;6.45;;;4.32;;
85040;SDS011;75367;52.010;4.358;2024-02-15T04:39:07;8.05;;;5.25;;
85040;SDS011;75367;52.010;4.358;2024-02-15T04:41:35;7.18;;;4.28;;
85040;SDS011;75367;52.010;4.358;2024-02-15T04:44:00;6.45;;;4.35;;
85040;SDS011;75367;52.010;4.358;2024-02-15T04:46:27;4.82;;;3.85;;
85040;SDS011;75367;52.010;4.358;2024-02-15T04:48:54;7.68;;;3.70;;
85040;SDS011;75367;52.010;4.358;2024-02-15T04:51:20;7.18;;;5.22;;
85040;SDS011;75367;52.010;4.358;2024-02-15T04:53:46;8.38;;;5.03;;
85040;SDS011;75367;52.010;4.358;2024-02-15T04:56:13;7.63;;;4.40;;
85040;SDS011;75367;52.010;4.358;2024-02-15T04:58:42;9.52;;;5.43;;
85040;SDS011;75367;52.010;4.358;2024-02-15T05:01:17;6.97;;;3.60;;
85040;SDS011;75367;52.010;4.358;2024-02-15T05:03:43;7.03;;;4.10;;
85040;SDS011;75367;52.010;4.358;2024-02-15T05:06:09;8.45;;;4.07;;
85040;SDS011;75367;52.010;4.358;2024-02-15T05:08:34;8.05;;;4.25;;
85040;SDS011;75367;52.010;4.358;2024-02-15T05:11:03;9.73;;;4.05;;
85040;SDS011;75367;52.010;4.358;2024-02-15T05:13:30;4.22;;;2.70;;
85040;SDS011;75367;52.010;4.358;2024-02-15T05:15:55;10.80;;;4.57;;
85040;SDS011;75367;52.010;4.358;2024-02-15T05:18:21;8.13;;;4.05;;
85040;SDS011;75367;52.010;4.358;2024-02-15T05:20:46;6.70;;;3.25;;
85040;SDS011;75367;52.010;4.358;2024-02-15T05:23:13;8.30;;;4.25;;
85040;SDS011;75367;52.010;4.358;2024-02-15T05:25:39;11.80;;;5.20;;
85040;SDS011;75367;52.010;4.358;2024-02-15T05:28:06;7.53;;;3.60;;
85040;SDS011;75367;52.010;4.358;2024-02-15T05:30:33;4.35;;;2.75;;
85040;SDS011;75367;52.010;4.358;2024-02-15T05:32:58;7.10;;;3.55;;
85040;SDS011;75367;52.010;4.358;2024-02-15T05:35:24;6.80;;;3.60;;
85040;SDS011;75367;52.010;4.358;2024-02-15T05:37:49;7.05;;;3.50;;
85040;SDS011;75367;52.010;4.358;2024-02-15T05:40:17;5.25;;;2.45;;
85040;SDS011;75367;52.010;4.358;2024-02-15T05:42:44;6.03;;;3.28;;
85040;SDS011;75367;52.010;4.358;2024-02-15T05:48:05;5.38;;;3.17;;
85040;SDS011;75367;52.010;4.358;2024-02-15T05:50:37;6.75;;;4.10;;
85040;SDS011;75367;52.010;4.358;2024-02-15T05:53:02;6.45;;;3.25;;
85040;SDS011;75367;52.010;4.358;2024-02-15T05:55:29;6.97;;;4.50;;
85040;SDS011;75367;52.010;4.358;2024-02-15T05:57:56;4.97;;;3.38;;
85040;SDS011;75367;52.010;4.358;2024-02-15T06:00:21;7.82;;;3.55;;
85040;SDS011;75367;52.010;4.358;2024-02-15T06:02:47;4.00;;;2.70;;
85040;SDS011;75367;52.010;4.358;2024-02-15T06:05:12;3.08;;;2.63;;
85040;SDS011;75367;52.010;4.358;2024-02-15T06:07:41;5.75;;;3.50;;
85040;SDS011;75367;52.010;4.358;2024-02-15T06:10:06;4.32;;;2.83;;
85040;SDS011;75367;52.010;4.358;2024-02-15T06:12:32;3.33;;;1.88;;
85040;SDS011;75367;52.010;4.358;2024-02-15T06:14:58;4.45;;;3.13;;
85040;SDS011;75367;52.010;4.358;2024-02-15T06:17:23;4.55;;;2.60;;
85040;SDS011;75367;52.010;4.358;2024-02-15T06:19:49;4.63;;;2.85;;
85040;SDS011;75367;52.010;4.358;2024-02-15T06:22:14;6.70;;;2.72;;
85040;SDS011;75367;52.010;4.358;2024-02-15T06:24:41;4.72;;;3.08;;
85040;SDS011;75367;52.010;4.358;2024-02-15T06:27:09;4.97;;;2.80;;
85040;SDS011;75367;52.010;4.358;2024-02-15T06:29:34;3.92;;;3.10;;
85040;SDS011;75367;52.010;4.358;2024-02-15T06:32:18;2.78;;;2.17;;
85040;SDS011;75367;52.010;4.358;2024-02-15T06:35:02;5.93;;;3.38;;
85040;SDS011;75367;52.010;4.358;2024-02-15T06:37:46;4.22;;;2.22;;
85040;SDS011;75367;52.010;4.358;2024-02-15T06:40:30;3.88;;;2.63;;
85040;SDS011;75367;52.010;4.358;2024-02-15T06:42:56;5.75;;;2.92;;
85040;SDS011;75367;52.010;4.358;2024-02-15T06:45:21;3.88;;;2.67;;
85040;SDS011;75367;52.010;4.358;2024-02-15T06:47:46;3.30;;;2.67;;
85040;SDS011;75367;52.010;4.358;2024-02-15T06:50:12;3.78;;;2.85;;
85040;SDS011;75367;52.010;4.358;2024-02-15T06:52:38;6.57;;;3.00;;
85040;SDS011;75367;52.010;4.358;2024-02-15T06:55:07;5.60;;;3.60;;
85040;SDS011;75367;52.010;4.358;2024-02-15T06:57:33;7.60;;;4.15;;
85040;SDS011;75367;52.010;4.358;2024-02-15T07:00:04;6.32;;;3.08;;
85040;SDS011;75367;52.010;4.358;2024-02-15T07:02:34;7.28;;;4.22;;
85040;SDS011;75367;52.010;4.358;2024-02-15T07:04:59;6.43;;;3.33;;
85040;SDS011;75367;52.010;4.358;2024-02-15T07:07:25;5.70;;;3.88;;
85040;SDS011;75367;52.010;4.358;2024-02-15T07:09:51;5.53;;;3.42;;
85040;SDS011;75367;52.010;4.358;2024-02-15T07:12:16;8.63;;;4.45;;
85040;SDS011;75367;52.010;4.358;2024-02-15T07:14:45;7.07;;;4.88;;
85040;SDS011;75367;52.010;4.358;2024-02-15T07:17:11;8.25;;;4.00;;
85040;SDS011;75367;52.010;4.358;2024-02-15T07:19:37;6.18;;;3.78;;
85040;SDS011;75367;52.010;4.358;2024-02-15T07:22:03;8.45;;;4.50;;
85040;SDS011;75367;52.010;4.358;2024-02-15T07:24:28;7.78;;;3.90;;
85040;SDS011;75367;52.010;4.358;2024-02-15T07:26:54;7.95;;;4.25;;
85040;SDS011;75367;52.010;4.358;2024-02-15T07:29:22;7.18;;;4.47;;
85040;SDS011;75367;52.010;4.358;2024-02-15T07:31:49;6.75;;;4.30;;
85040;SDS011;75367;52.010;4.358;2024-02-15T07:34:14;4.57;;;3.45;;
85040;SDS011;75367;52.010;4.358;2024-02-15T07:36:40;7.15;;;4.47;;
85040;SDS011;75367;52.010;4.358;2024-02-15T07:39:07;5.28;;;3.00;;
85040;SDS011;75367;52.010;4.358;2024-02-15T07:41:37;5.15;;;3.72;;
85040;SDS011;75367;52.010;4.358;2024-02-15T07:44:03;6.65;;;3.85;;
85040;SDS011;75367;52.010;4.358;2024-02-15T07:46:29;7.45;;;4.32;;
85040;SDS011;75367;52.010;4.358;2024-02-15T07:48:55;6.10;;;3.40;;
85040;SDS011;75367;52.010;4.358;2024-02-15T07:51:22;6.10;;;3.55;;
85040;SDS011;75367;52.010;4.358;2024-02-15T07:53:49;6.88;;;3.80;;
85040;SDS011;75367;52.010;4.358;2024-02-15T07:56:15;5.65;;;3.25;;
85040;SDS011;75367;52.010;4.358;2024-02-15T07:58:42;5.13;;;3.13;;
85040;SDS011;75367;52.010;4.358;2024-02-15T08:01:26;4.93;;;2.97;;
85040;SDS011;75367;52.010;4.358;2024-02-15T08:03:52;4.72;;;3.38;;
85040;SDS011;75367;52.010;4.358;2024-02-15T08:06:17;5.78;;;3.47;;
85040;SDS011;75367;52.010;4.358;2024-02-15T08:08:44;7.05;;;4.03;;
85040;SDS011;75367;52.010;4.358;2024-02-15T08:11:11;5.80;;;3.25;;
85040;SDS011;75367;52.010;4.358;2024-02-15T08:13:47;7.60;;;3.90;;
85040;SDS011;75367;52.010;4.358;2024-02-15T08:16:21;5.50;;;3.20;;
85040;SDS011;75367;52.010;4.358;2024-02-15T08:18:48;7.70;;;4.45;;
85040;SDS011;75367;52.010;4.358;2024-02-15T08:21:13;8.10;;;4.18;;
85040;SDS011;75367;52.010;4.358;2024-02-15T08:23:39;9.85;;;3.40;;
85040;SDS011;75367;52.010;4.358;2024-02-15T08:26:11;6.18;;;3.60;;
85040;SDS011;75367;52.010;4.358;2024-02-15T08:28:36;8.57;;;4.40;;
85040;SDS011;75367;52.010;4.358;2024-02-15T08:31:02;5.40;;;3.47;;
85040;SDS011;75367;52.010;4.358;2024-02-15T08:33:28;6.45;;;3.78;;
85040;SDS011;75367;52.010;4.358;2024-02-15T08:35:56;5.90;;;3.50;;
85040;SDS011;75367;52.010;4.358;2024-02-15T08:38:22;5.78;;;3.20;;
85040;SDS011;75367;52.010;4.358;2024-02-15T08:40:48;5.72;;;3.00;;
85040;SDS011;75367;52.010;4.358;2024-02-15T08:43:14;5.35;;;2.90;;
85040;SDS011;75367;52.010;4.358;2024-02-15T08:45:43;3.60;;;1.85;;
85040;SDS011;75367;52.010;4.358;2024-02-15T08:48:09;8.15;;;3.50;;
85040;SDS011;75367;52.010;4.358;2024-02-15T08:50:35;4.43;;;2.75;;
85040;SDS011;75367;52.010;4.358;2024-02-15T08:53:01;7.18;;;4.40;;
85040;SDS011;75367;52.010;4.358;2024-02-15T08:55:30;5.95;;;3.42;;
85040;SDS011;75367;52.010;4.358;2024-02-15T08:57:55;6.82;;;3.60;;
85040;SDS011;75367;52.010;4.358;2024-02-15T09:00:21;7.82;;;4.05;;
85040;SDS011;75367;52.010;4.358;2024-02-15T09:02:46;6.32;;;2.83;;
85040;SDS011;75367;52.010;4.358;2024-02-15T09:05:13;5.70;;;3.35;;
85040;SDS011;75367;52.010;4.358;2024-02-15T09:07:42;5.57;;;3.08;;
85040;SDS011;75367;52.010;4.358;2024-02-15T09:10:09;6.50;;;2.38;;
85040;SDS011;75367;52.010;4.358;2024-02-15T09:12:35;3.42;;;2.25;;
85040;SDS011;75367;52.010;4.358;2024-02-15T09:15:04;6.70;;;2.95;;
85040;SDS011;75367;52.010;4.358;2024-02-15T09:17:34;5.90;;;2.53;;
85040;SDS011;75367;52.010;4.358;2024-02-15T09:20:04;4.43;;;2.33;;
85040;SDS011;75367;52.010;4.358;2024-02-15T09:22:34;6.68;;;3.13;;
85040;SDS011;75367;52.010;4.358;2024-02-15T09:25:01;5.85;;;3.15;;
85040;SDS011;75367;52.010;4.358;2024-02-15T09:27:27;5.25;;;2.70;;
85040;SDS011;75367;52.010;4.358;2024-02-15T09:29:52;8.07;;;3.20;;
85040;SDS011;75367;52.010;4.358;2024-02-15T09:32:18;7.70;;;4.00;;
85040;SDS011;75367;52.010;4.358;2024-02-15T09:34:43;8.95;;;4.03;;
85040;SDS011;75367;52.010;4.358;2024-02-15T09:37:09;7.03;;;2.83;;
85040;SDS011;75367;52.010;4.358;2024-02-15T09:39:36;7.05;;;3.28;;
85040;SDS011;75367;52.010;4.358;2024-02-15T09:42:03;5.65;;;2.88;;
85040;SDS011;75367;52.010;4.358;2024-02-15T09:44:29;5.50;;;3.67;;
85040;SDS011;75367;52.010;4.358;2024-02-15T09:46:59;5.40;;;2.90;;
85040;SDS011;75367;52.010;4.358;2024-02-15T09:49:29;4.43;;;2.90;;
85040;SDS011;75367;52.010;4.358;2024-02-15T09:51:55;8.13;;;3.55;;
85040;SDS011;75367;52.010;4.358;2024-02-15T09:54:27;5.82;;;1.67;;
85040;SDS011;75367;52.010;4.358;2024-02-15T09:56:52;2.28;;;1.40;;
85040;SDS011;75367;52.010;4.358;2024-02-15T09:59:19;7.15;;;3.10;;
85040;SDS011;75367;52.010;4.358;2024-02-15T10:01:44;4.65;;;3.55;;
85040;SDS011;75367;52.010;4.358;2024-02-15T10:04:11;4.82;;;2.42;;
85040;SDS011;75367;52.010;4.358;2024-02-15T10:06:41;4.75;;;2.95;;
85040;SDS011;75367;52.010;4.358;2024-02-15T10:11:53;9.82;;;3.60;;
85040;SDS011;75367;52.010;4.358;2024-02-15T10:14:26;9.35;;;4.95;;
85040;SDS011;75367;52.010;4.358;2024-02-15T10:16:53;6.15;;;3.53;;
85040;SDS011;75367;52.010;4.358;2024-02-15T10:19:19;8.02;;;3.92;;
85040;SDS011;75367;52.010;4.358;2024-02-15T10:21:52;6.03;;;3.92;;
85040;SDS011;75367;52.010;4.358;2024-02-15T10:24:24;8.85;;;4.78;;
85040;SDS011;75367;52.010;4.358;2024-02-15T10:26:50;9.88;;;3.80;;
85040;SDS011;75367;52.010;4.358;2024-02-15T10:29:16;6.07;;;3.33;;
85040;SDS011;75367;52.010;4.358;2024-02-15T10:34:43;5.75;;;3.05;;
85040;SDS011;75367;52.010;4.358;2024-02-15T10:37:13;3.38;;;2.90;;
85040;SDS011;75367;52.010;4.358;2024-02-15T10:39:41;6.60;;;2.95;;
85040;SDS011;75367;52.010;4.358;2024-02-15T10:42:07;7.50;;;2.75;;
85040;SDS011;75367;52.010;4.358;2024-02-15T10:44:36;4.93;;;3.15;;
85040;SDS011;75367;52.010;4.358;2024-02-15T10:47:03;3.22;;;2.55;;
85040;SDS011;75367;52.010;4.358;2024-02-15T10:49:32;6.15;;;2.60;;
85040;SDS011;75367;52.010;4.358;2024-02-15T10:51:58;6.68;;;2.60;;
85040;SDS011;75367;52.010;4.358;2024-02-15T10:54:52;7.95;;;4.10;;
85040;SDS011;75367;52.010;4.358;2024-02-15T10:57:22;4.15;;;2.35;;
85040;SDS011;75367;52.010;4.358;2024-02-15T10:59:53;5.40;;;2.70;;
85040;SDS011;75367;52.010;4.358;2024-02-15T11:02:33;4.07;;;2.67;;
85040;SDS011;75367;52.010;4.358;2024-02-15T11:05:06;8.98;;;3.05;;
85040;SDS011;75367;52.010;4.358;2024-02-15T11:07:35;6.57;;;2.42;;
85040;SDS011;75367;52.010;4.358;2024-02-15T11:10:02;5.40;;;2.30;;
85040;SDS011;75367;52.010;4.358;2024-02-15T11:12:33;3.20;;;2.05;;
85040;SDS011;75367;52.010;4.358;2024-02-15T11:14:58;5.10;;;1.95;;
85040;SDS011;75367;52.010;4.358;2024-02-15T11:20:05;5.63;;;1.90;;
85040;SDS011;75367;52.010;4.358;2024-02-15T11:22:36;5.70;;;2.00;;
85040;SDS011;75367;52.010;4.358;2024-02-15T11:25:04;9.80;;;2.90;;
85040;SDS011;75367;52.010;4.358;2024-02-15T11:27:40;4.60;;;2.00;;
85040;SDS011;75367;52.010;4.358;2024-02-15T11:30:06;3.65;;;2.38;;
85040;SDS011;75367;52.010;4.358;2024-02-15T11:35:03;5.40;;;2.90;;
85040;SDS011;75367;52.010;4.358;2024-02-15T11:43:06;3.78;;;2.40;;
85040;SDS011;75367;52.010;4.358;2024-02-15T11:45:34;5.10;;;3.13;;
85040;SDS011;75367;52.010;4.358;2024-02-15T11:48:11;5.63;;;2.88;;
85040;SDS011;75367;52.010;4.358;2024-02-15T11:50:37;4.45;;;2.92;;
85040;SDS011;75367;52.010;4.358;2024-02-15T11:53:05;4.65;;;2.70;;
85040;SDS011;75367;52.010;4.358;2024-02-15T11:55:34;3.95;;;2.33;;
85040;SDS011;75367;52.010;4.358;2024-02-15T11:58:00;5.47;;;2.65;;
85040;SDS011;75367;52.010;4.358;2024-02-15T12:00:33;5.57;;;2.30;;
85040;SDS011;75367;52.010;4.358;2024-02-15T12:03:18;2.83;;;2.03;;
85040;SDS011;75367;52.010;4.358;2024-02-15T12:06:02;4.03;;;1.83;;
85040;SDS011;75367;52.010;4.358;2024-02-15T12:08:47;4.97;;;2.28;;
85040;SDS011;75367;52.010;4.358;2024-02-15T12:11:31;5.07;;;1.70;;
85040;SDS011;75367;52.010;4.358;2024-02-15T12:14:16;6.70;;;1.77;;
85040;SDS011;75367;52.010;4.358;2024-02-15T12:20:03;3.70;;;1.40;;
85040;SDS011;75367;52.010;4.358;2024-02-15T12:22:44;3.30;;;1.50;;
85040;SDS011;75367;52.010;4.358;2024-02-15T12:25:15;3.70;;;1.77;;
85040;SDS011;75367;52.010;4.358;2024-02-15T12:27:42;4.20;;;2.17;;
85040;SDS011;75367;52.010;4.358;2024-02-15T12:32:40;4.53;;;1.90;;
85040;SDS011;75367;52.010;4.358;2024-02-15T12:35:12;4.45;;;1.08;;
85040;SDS011;75367;52.010;4.358;2024-02-15T12:37:42;1.98;;;1.23;;
85040;SDS011;75367;52.010;4.358;2024-02-15T12:40:12;6.00;;;1.70;;
85040;SDS011;75367;52.010;4.358;2024-02-15T12:42:45;4.97;;;1.30;;
85040;SDS011;75367;52.010;4.358;2024-02-15T12:45:18;2.53;;;0.77;;
85040;SDS011;75367;52.010;4.358;2024-02-15T12:47:50;3.28;;;0.80;;
85040;SDS011;75367;52.010;4.358;2024-02-15T12:50:16;3.65;;;1.00;;
85040;SDS011;75367;52.010;4.358;2024-02-15T12:52:42;2.70;;;1.00;;
85040;SDS011;75367;52.010;4.358;2024-02-15T12:55:14;5.15;;;1.00;;
85040;SDS011;75367;52.010;4.358;2024-02-15T12:57:40;5.00;;;1.13;;
85040;SDS011;75367;52.010;4.358;2024-02-15T13:00:08;4.93;;;1.25;;
85040;SDS011;75367;52.010;4.358;2024-02-15T13:02:42;4.05;;;1.00;;
85040;SDS011;75367;52.010;4.358;2024-02-15T13:05:08;2.47;;;0.80;;
85040;SDS011;75367;52.010;4.358;2024-02-15T13:07:35;2.80;;;1.08;;
85040;SDS011;75367;52.010;4.358;2024-02-15T13:10:01;2.55;;;1.02;;
85040;SDS011;75367;52.010;4.358;2024-02-15T13:12:28;4.43;;;0.90;;
85040;SDS011;75367;52.010;4.358;2024-02-15T13:14:54;4.70;;;1.45;;
85040;SDS011;75367;52.010;4.358;2024-02-15T13:17:19;3.65;;;1.00;;
85040;SDS011;75367;52.010;4.358;2024-02-15T13:19:45;2.88;;;1.08;;
85040;SDS011;75367;52.010;4.358;2024-02-15T13:22:14;4.63;;;1.35;;
85040;SDS011;75367;52.010;4.358;2024-02-15T13:24:44;2.88;;;1.00;;
85040;SDS011;75367;52.010;4.358;2024-02-15T13:27:09;2.13;;;0.90;;
85040;SDS011;75367;52.010;4.358;2024-02-15T13:29:37;4.43;;;1.98;;
85040;SDS011;75367;52.010;4.358;2024-02-15T13:32:05;3.67;;;0.90;;
85040;SDS011;75367;52.010;4.358;2024-02-15T13:34:31;2.90;;;0.85;;
85040;SDS011;75367;52.010;4.358;2024-02-15T13:36:58;5.32;;;1.10;;
85040;SDS011;75367;52.010;4.358;2024-02-15T13:39:27;4.13;;;1.30;;
85040;SDS011;75367;52.010;4.358;2024-02-15T13:41:58;2.70;;;1.05;;
85040;SDS011;75367;52.010;4.358;2024-02-15T13:44:26;4.13;;;1.23;;
85040;SDS011;75367;52.010;4.358;2024-02-15T13:46:52;3.90;;;1.00;;
85040;SDS011;75367;52.010;4.358;2024-02-15T13:49:20;2.78;;;1.10;;
85040;SDS011;75367;52.010;4.358;2024-02-15T13:51:46;6.55;;;1.85;;
85040;SDS011;75367;52.010;4.358;2024-02-15T13:54:11;3.58;;;1.52;;
85040;SDS011;75367;52.010;4.358;2024-02-15T13:56:37;7.63;;;3.67;;
85040;SDS011;75367;52.010;4.358;2024-02-15T13:59:04;4.60;;;1.60;;
85040;SDS011;75367;52.010;4.358;2024-02-15T14:01:29;6.22;;;1.50;;
85040;SDS011;75367;52.010;4.358;2024-02-15T14:03:55;3.13;;;1.38;;
85040;SDS011;75367;52.010;4.358;2024-02-15T14:06:22;5.60;;;1.88;;
85040;SDS011;75367;52.010;4.358;2024-02-15T14:08:49;5.22;;;1.58;;
85040;SDS011;75367;52.010;4.358;2024-02-15T14:11:16;4.85;;;1.77;;
85040;SDS011;75367;52.010;4.358;2024-02-15T14:13:42;5.20;;;2.15;;
85040;SDS011;75367;52.010;4.358;2024-02-15T14:16:07;6.32;;;1.98;;
85040;SDS011;75367;52.010;4.358;2024-02-15T14:18:33;17.38;;;9.60;;
85040;SDS011;75367;52.010;4.358;2024-02-15T14:20:59;4.43;;;1.85;;
85040;SDS011;75367;52.010;4.358;2024-02-15T14:23:25;5.55;;;1.73;;
85040;SDS011;75367;52.010;4.358;2024-02-15T14:25:52;3.55;;;1.60;;
85040;SDS011;75367;52.010;4.358;2024-02-15T14:28:19;4.47;;;1.40;;
85040;SDS011;75367;52.010;4.358;2024-02-15T14:30:44;4.90;;;2.08;;
85040;SDS011;75367;52.010;4.358;2024-02-15T14:33:28;7.80;;;1.77;;
85040;SDS011;75367;52.010;4.358;2024-02-15T14:35:53;4.57;;;1.30;;
85040;SDS011;75367;52.010;4.358;2024-02-15T14:38:20;6.43;;;2.58;;
85040;SDS011;75367;52.010;4.358;2024-02-15T14:40:47;4.22;;;1.40;;
85040;SDS011;75367;52.010;4.358;2024-02-15T14:43:21;5.25;;;1.88;;
85040;SDS011;75367;52.010;4.358;2024-02-15T14:45:47;9.38;;;2.20;;
85040;SDS011;75367;52.010;4.358;2024-02-15T14:48:13;5.93;;;2.40;;
85040;SDS011;75367;52.010;4.358;2024-02-15T14:50:42;4.47;;;1.42;;
85040;SDS011;75367;52.010;4.358;2024-02-15T14:53:09;2.75;;;1.63;;
85040;SDS011;75367;52.010;4.358;2024-02-15T14:55:35;4.88;;;1.90;;
85040;SDS011;75367;52.010;4.358;2024-02-15T14:58:04;4.40;;;1.50;;
85040;SDS011;75367;52.010;4.358;2024-02-15T15:00:35;5.88;;;1.25;;
85040;SDS011;75367;52.010;4.358;2024-02-15T15:03:02;5.07;;;1.60;;
85040;SDS011;75367;52.010;4.358;2024-02-15T15:05:28;3.95;;;1.65;;
85040;SDS011;75367;52.010;4.358;2024-02-15T15:08:12;4.75;;;1.50;;
85040;SDS011;75367;52.010;4.358;2024-02-15T15:10:56;4.60;;;1.50;;
85040;SDS011;75367;52.010;4.358;2024-02-15T15:13:40;3.10;;;1.50;;
85040;SDS011;75367;52.010;4.358;2024-02-15T15:16:05;6.53;;;1.88;;
85040;SDS011;75367;52.010;4.358;2024-02-15T15:18:33;5.07;;;1.17;;